Time;durP1;ratioP1;P1;durP2;ratioP2;P2;SDS_P1;SDS_P2;PMS_P1;PMS_P2;Temp;Humidity;BMP_temperature;BMP_pressure;BME280_temperature;BME280_humidity;BME280_pressure;Samples;Min_cycle;Max_cycle;Signal;HPM_P1;HPM_P2
2022/06/01 00:02:11;;;;;;;5.05;2.92;;;;;;;14.10;75.24;94978.97;5110565;28;20024;-68
2022/06/01 00:04:36;;;;;;;4.65;3.30;;;;;;;13.95;75.30;94969.94;5111191;28;20035;-68
2022/06/01 00:07:02;;;;;;;3.10;2.80;;;;;;;14.14;75.31;94976.88;5092926;28;20469;-68
2022/06/01 00:09:27;;;;;;;3.42;2.90;;;;;;;14.18;75.34;94976.47;5109972;28;20044;-68
2022/06/01 00:11:53;;;;;;;5.13;3.30;;;;;;;14.22;75.85;94972.56;5109404;28;20085;-68
2022/06/01 00:14:18;;;;;;;3.72;3.20;;;;;;;14.28;75.53;94974.59;5092910;28;20024;-68
2022/06/01 00:16:44;;;;;;;3.35;2.40;;;;;;;14.33;75.44;94974.19;5109743;28;20046;-68
2022/06/01 00:19:11;;;;;;;8.68;2.90;;;;;;;14.22;74.85;94962.13;5108937;28;20038;-68
2022/06/01 00:22:11;;;;;;;6.30;2.63;;;;;;;14.11;74.72;94967.53;5109847;28;20059;-68
2022/06/01 00:24:22;;;;;;;4.20;2.58;;;;;;;14.09;74.72;94952.00;5111337;28;20081;-68
2022/06/01 00:26:49;;;;;;;9.35;2.40;;;;;;;14.12;74.78;94961.34;5111942;28;20485;-68
2022/06/01 00:29:14;;;;;;;4.13;2.78;;;;;;;14.12;74.56;94948.28;5114242;28;20043;-68
2022/06/01 00:31:40;;;;;;;6.70;2.65;;;;;;;14.07;74.38;94960.97;5114152;28;20042;-68
2022/06/01 00:34:05;;;;;;;6.38;2.88;;;;;;;14.03;74.57;94962.22;5113700;28;20031;-68
2022/06/01 00:36:32;;;;;;;5.60;2.55;;;;;;;14.06;74.06;94960.13;5096029;28;20036;-68
2022/06/01 00:38:57;;;;;;;4.22;2.70;;;;;;;14.09;73.98;94961.63;5096529;28;20028;-68
2022/06/01 00:41:23;;;;;;;6.57;2.47;;;;;;;14.04;73.75;94961.25;5114801;28;20508;-68
2022/06/01 00:43:49;;;;;;;3.90;2.83;;;;;;;14.04;73.94;94964.69;5114689;28;20020;-68
2022/06/01 00:46:14;;;;;;;4.00;2.40;;;;;;;14.04;74.00;94963.84;5114113;28;20027;-69
2022/06/01 00:48:44;;;;;;;4.03;2.80;;;;;;;13.98;73.97;94951.38;5113328;28;20046;-68
2022/06/01 00:51:09;;;;;;;2.80;2.40;;;;;;;13.96;74.07;94950.72;5113478;28;20027;-68
2022/06/01 00:53:35;;;;;;;2.70;2.38;;;;;;;13.97;73.83;94952.34;5113490;28;20026;-68
2022/06/01 00:56:04;;;;;;;3.60;2.30;;;;;;;13.78;74.24;94934.97;5095592;28;20043;-68
2022/06/01 00:58:32;;;;;;;7.22;2.30;;;;;;;13.90;74.19;94951.28;5079754;28;20459;-68
2022/06/01 01:00:58;;;;;;;3.75;2.83;;;;;;;13.83;74.15;94948.44;5112651;28;20089;-68
2022/06/01 01:03:25;;;;;;;5.70;2.70;;;;;;;13.81;74.30;94952.97;5112456;28;20047;-68
2022/06/01 01:06:09;;;;;;;4.00;2.53;;;;;;;13.87;73.77;94949.78;5096170;28;20027;-69
2022/06/01 01:08:35;;;;;;;3.80;2.45;;;;;;;13.78;73.99;94941.00;5098058;28;20028;-68
2022/06/01 01:11:00;;;;;;;6.70;2.38;;;;;;;13.81;74.12;94948.56;5112960;28;20035;-69
2022/06/01 01:13:25;;;;;;;3.58;2.55;;;;;;;13.77;74.19;94939.38;5112711;28;20031;-69
2022/06/01 01:15:52;;;;;;;3.70;2.38;;;;;;;13.78;74.35;94948.84;5112533;28;20558;-68
2022/06/01 01:18:19;;;;;;;4.82;2.20;;;;;;;13.79;74.38;94945.28;5095764;28;20032;-68
2022/06/01 01:21:09;;;;;;;2.80;2.38;;;;;;;13.76;74.30;94944.72;5112520;28;20065;-69
2022/06/01 01:24:16;;;;;;;4.68;2.22;;;;;;;13.67;74.55;94935.97;5114517;28;20027;-68
2022/06/01 01:26:49;;;;;;;5.47;2.35;;;;;;;13.53;75.12;94926.00;5106154;27;20044;-68
2022/06/01 01:29:15;;;;;;;6.03;2.33;;;;;;;13.54;75.13;94919.81;5095320;28;20517;-68
2022/06/01 01:31:40;;;;;;;6.45;2.75;;;;;;;13.55;75.24;94929.28;5111849;28;20115;-68
2022/06/01 01:34:06;;;;;;;4.50;2.45;;;;;;;13.44;75.68;94926.84;5112496;28;20032;-69
2022/06/01 01:36:35;;;;;;;6.72;2.55;;;;;;;13.38;75.89;94921.25;5112101;28;20042;-68
2022/06/01 01:39:12;;;;;;;4.70;2.53;;;;;;;13.40;75.75;94908.06;5095270;28;20047;-68
2022/06/01 01:41:44;;;;;;;5.25;2.60;;;;;;;13.45;75.63;94911.03;5112002;28;20406;-68
2022/06/01 01:44:09;;;;;;;2.80;2.40;;;;;;;13.47;75.65;94914.34;5112395;28;20024;-68
2022/06/01 01:46:35;;;;;;;3.35;2.78;;;;;;;13.56;75.39;94907.44;5113052;28;20493;-68
2022/06/01 01:49:02;;;;;;;7.50;2.95;;;;;;;13.48;75.66;94899.50;5112717;28;20039;-68
2022/06/01 01:51:29;;;;;;;5.47;2.85;;;;;;;13.45;75.83;94905.00;5095520;28;20023;-68
2022/06/01 01:53:55;;;;;;;5.68;2.90;;;;;;;13.54;75.79;94910.22;5112121;28;20114;-68
2022/06/01 01:56:54;;;;;;;3.72;2.88;;;;;;;13.63;75.05;94914.56;5094847;28;20114;-68
2022/06/01 01:59:29;;;;;;;6.30;2.80;;;;;;;13.59;75.21;94907.16;5113327;28;20103;-68
2022/06/01 02:02:05;;;;;;;4.32;2.60;;;;;;;13.60;74.84;94898.38;5111464;28;20089;-68
2022/06/01 02:07:24;;;;;;;4.57;2.92;;;;;;;13.76;74.42;94903.81;5098098;28;20455;-68
2022/06/01 02:12:43;;;;;;;7.68;2.95;;;;;;;13.80;74.88;94920.81;5112131;28;20149;-68
2022/06/01 02:15:17;;;;;;;4.78;2.97;;;;;;;13.74;74.93;94929.22;5110658;28;20035;-69
2022/06/01 02:17:51;;;;;;;8.95;4.10;;;;;;;13.57;76.04;94930.81;5095409;28;20024;-68
2022/06/01 02:20:26;;;;;;;4.35;3.65;;;;;;;13.57;76.07;94928.19;5095626;28;20034;-68
2022/06/01 02:22:51;;;;;;;6.50;3.72;;;;;;;13.63;75.69;94929.41;5111430;28;20064;-68
2022/06/01 02:25:17;;;;;;;6.88;3.95;;;;;;;13.62;75.77;94935.56;5094955;28;20040;-68
2022/06/01 02:27:42;;;;;;;6.60;4.20;;;;;;;13.53;75.89;94934.63;5094504;28;20515;-68
2022/06/01 02:30:13;;;;;;;4.10;3.47;;;;;;;13.54;75.78;94930.25;5111429;28;20092;-69
2022/06/01 02:32:39;;;;;;;5.80;3.83;;;;;;;13.47;75.71;94929.19;5094830;28;20041;-68
2022/06/01 02:35:05;;;;;;;4.93;3.50;;;;;;;13.36;75.56;94930.97;5094366;28;20118;-68
2022/06/01 02:37:31;;;;;;;5.70;3.55;;;;;;;13.33;75.35;94926.06;5094460;28;20031;-68
2022/06/01 02:39:56;;;;;;;4.85;3.33;;;;;;;13.24;75.35;94929.47;5076989;28;20126;-70
2022/06/01 02:42:31;;;;;;;7.07;3.28;;;;;;;13.27;74.94;94944.88;5094163;28;20409;-68
2022/06/01 02:45:07;;;;;;;8.13;3.90;;;;;;;12.97;75.86;94927.59;5111918;28;20028;-68
2022/06/01 02:47:37;;;;;;;4.88;4.00;;;;;;;12.95;76.60;94938.19;5111998;27;20088;-68
2022/06/01 02:50:03;;;;;;;6.32;3.80;;;;;;;12.88;76.84;94944.88;5093412;28;20040;-68
2022/06/01 02:52:29;;;;;;;4.78;4.15;;;;;;;13.04;76.42;94943.50;5110143;28;20503;-68
2022/06/01 02:54:55;;;;;;;4.50;3.53;;;;;;;13.05;76.53;94940.75;5112321;27;20039;-69
2022/06/01 02:57:20;;;;;;;5.07;3.80;;;;;;;13.02;76.22;94943.66;5112014;28;20443;-68
2022/06/01 02:59:46;;;;;;;4.80;4.18;;;;;;;12.83;76.42;94936.66;5113353;27;20031;-68
2022/06/01 03:02:12;;;;;;;7.72;4.80;;;;;;;12.82;77.03;94935.00;5076756;28;20024;-68
2022/06/01 03:04:38;;;;;;;6.25;4.95;;;;;;;12.81;77.01;94932.53;5114295;27;20127;-68
2022/06/01 03:07:04;;;;;;;4.40;3.90;;;;;;;12.80;76.73;94929.09;5104067;28;20028;-69
2022/06/01 03:09:29;;;;;;;7.25;5.00;;;;;;;12.80;77.06;94936.94;5093817;28;20036;-68
2022/06/01 03:11:55;;;;;;;6.30;4.68;;;;;;;12.70;76.67;94938.69;5110284;28;20035;-68
2022/06/01 03:14:20;;;;;;;8.40;6.00;;;;;;;12.64;77.68;94931.44;5111767;28;20077;-68
2022/06/01 03:16:46;;;;;;;7.43;5.75;;;;;;;12.73;78.06;94936.66;5109897;28;20028;-68
2022/06/01 03:19:11;;;;;;;8.48;5.40;;;;;;;12.83;78.03;94947.09;5111817;28;20051;-68
2022/06/01 03:21:37;;;;;;;9.82;5.80;;;;;;;12.89;77.88;94943.91;5110455;28;20050;-68
2022/06/01 03:24:05;;;;;;;5.60;4.75;;;;;;;12.88;77.70;94955.31;5093139;28;20089;-68
2022/06/01 03:26:30;;;;;;;5.93;5.03;;;;;;;12.95;77.77;94951.22;5111176;28;20031;-68
2022/06/01 03:28:56;;;;;;;9.07;6.07;;;;;;;12.94;77.83;94965.19;5093355;28;20089;-68
2022/06/01 03:31:21;;;;;;;9.05;6.50;;;;;;;13.00;78.25;94963.81;5109267;28;20496;-68
2022/06/01 03:33:46;;;;;;;9.50;5.50;;;;;;;13.02;77.98;94958.47;5103679;27;20417;-68
2022/06/01 03:36:12;;;;;;;7.43;5.50;;;;;;;12.95;77.49;94960.78;5082338;28;20023;-68
2022/06/01 03:38:38;;;;;;;7.93;5.32;;;;;;;12.87;77.63;94955.44;5107195;27;20498;-68
2022/06/01 03:41:04;;;;;;;7.68;5.15;;;;;;;12.92;77.56;94967.09;5103533;28;20028;-68
2022/06/01 03:43:30;;;;;;;6.65;5.30;;;;;;;12.97;77.99;94959.69;5074040;28;20028;-68
2022/06/01 03:45:56;;;;;;;6.43;5.38;;;;;;;13.11;78.45;94966.28;5113740;27;20517;-68
2022/06/01 03:48:28;;;;;;;7.45;5.57;;;;;;;13.28;77.85;94964.78;5130683;27;20106;-68
2022/06/01 03:50:54;;;;;;;6.43;5.57;;;;;;;13.50;77.40;94965.44;5131749;27;20565;-68
2022/06/01 03:53:19;;;;;;;7.47;6.30;;;;;;;13.43;77.78;94966.94;5130722;27;20031;-68
2022/06/01 03:55:45;;;;;;;5.15;4.65;;;;;;;13.47;77.44;94966.53;5098732;28;20035;-69
2022/06/01 03:58:18;;;;;;;11.52;5.65;;;;;;;13.49;77.90;94969.00;5088297;28;20114;-68
2022/06/01 04:00:45;;;;;;;6.35;5.70;;;;;;;13.58;77.84;94970.75;5095344;28;20501;-68
2022/06/01 04:03:11;;;;;;;6.60;5.90;;;;;;;13.80;77.02;94970.41;5097384;28;20432;-68
2022/06/01 04:05:36;;;;;;;7.18;5.95;;;;;;;14.11;76.02;94964.94;5114979;28;20042;-71
2022/06/01 04:08:02;;;;;;;8.00;5.50;;;;;;;15.24;72.46;94968.88;5104489;28;20391;-69
2022/06/01 04:10:27;;;;;;;6.80;5.60;;;;;;;16.33;68.26;94968.38;5117637;27;20035;-72
2022/06/01 04:12:53;;;;;;;9.60;5.18;;;;;;;17.42;64.80;94976.09;5116317;28;20481;-68
2022/06/01 04:15:18;;;;;;;9.35;5.20;;;;;;;18.49;61.45;94965.34;5098365;28;20560;-68
2022/06/01 04:17:44;;;;;;;5.95;4.82;;;;;;;19.38;57.85;94968.41;5117231;27;20036;-70
2022/06/01 04:20:10;;;;;;;5.38;4.82;;;;;;;20.04;55.46;94958.91;5114892;27;20028;-68
2022/06/01 04:22:37;;;;;;;6.97;4.80;;;;;;;20.88;53.29;94978.84;5115269;27;20031;-69
2022/06/01 04:25:03;;;;;;;5.95;4.75;;;;;;;21.88;50.06;94970.00;5078038;28;20521;-69
2022/06/01 04:27:29;;;;;;;6.93;5.20;;;;;;;22.19;48.46;94960.88;5096010;28;20027;-70
2022/06/01 04:29:54;;;;;;;5.32;4.82;;;;;;;22.21;48.23;94970.25;5108556;28;20035;-69
2022/06/01 04:32:28;;;;;;;7.15;4.47;;;;;;;21.85;49.16;94965.94;5117714;27;20028;-70
2022/06/01 04:34:54;;;;;;;5.65;4.88;;;;;;;22.63;48.42;94979.00;5090268;28;20450;-70
2022/06/01 04:37:19;;;;;;;5.18;4.50;;;;;;;24.33;44.00;94976.13;5116207;27;20024;-70
2022/06/01 04:39:45;;;;;;;5.80;4.53;;;;;;;24.30;43.88;94964.91;5118966;27;20042;-68
2022/06/01 04:42:10;;;;;;;5.63;4.50;;;;;;;23.70;45.07;94971.28;5098733;28;20035;-68
2022/06/01 04:44:36;;;;;;;7.15;5.07;;;;;;;22.79;47.54;94961.97;5098386;28;20041;-68
2022/06/01 04:47:01;;;;;;;9.93;4.88;;;;;;;21.89;49.28;94965.53;5098891;28;20036;-68
2022/06/01 04:49:27;;;;;;;5.85;4.53;;;;;;;20.49;53.38;94956.25;5117040;28;20500;-68
2022/06/01 04:51:52;;;;;;;9.25;4.80;;;;;;;20.29;54.42;94966.56;5101417;28;20393;-68
2022/06/01 04:54:17;;;;;;;5.70;4.78;;;;;;;19.92;55.68;94962.16;5116249;27;20096;-68
2022/06/01 04:56:43;;;;;;;7.88;4.05;;;;;;;19.64;56.05;94952.22;5114219;27;20027;-68
2022/06/01 04:59:09;;;;;;;3.55;2.38;;;;;;;19.64;54.84;94971.47;5116159;28;20183;-68
2022/06/01 05:01:35;;;;;;;4.43;2.13;;;;;;;19.58;54.90;94966.91;5114077;27;20027;-67
2022/06/01 05:04:00;;;;;;;5.85;2.58;;;;;;;19.66;56.11;94973.13;5120145;27;20073;-67
2022/06/01 05:06:25;;;;;;;8.98;6.18;;;;;;;19.20;58.06;94968.72;5124275;27;20030;-69
2022/06/01 05:08:51;;;;;;;6.40;5.13;;;;;;;19.13;58.18;94973.84;5116203;27;20047;-69
2022/06/01 05:11:17;;;;;;;7.10;6.03;;;;;;;19.01;59.56;94970.00;5115531;27;20513;-69
2022/06/01 05:13:42;;;;;;;7.38;5.47;;;;;;;19.22;59.04;94971.16;5113283;27;20358;-69
2022/06/01 05:16:08;;;;;;;7.68;5.85;;;;;;;19.02;59.04;94963.75;5095685;28;20028;-69
2022/06/01 05:18:33;;;;;;;9.25;6.28;;;;;;;18.79;60.99;94976.06;5095621;28;20043;-69
2022/06/01 05:20:58;;;;;;;6.78;5.70;;;;;;;18.69;60.46;94968.34;5103197;28;20032;-67
2022/06/01 05:23:24;;;;;;;7.85;5.65;;;;;;;18.47;62.10;94972.56;5075592;28;20512;-68
2022/06/01 05:25:50;;;;;;;7.35;5.75;;;;;;;18.83;61.29;94979.97;5109606;28;20062;-67
2022/06/01 05:28:18;;;;;;;8.25;5.07;;;;;;;19.07;59.90;94985.09;5112611;28;20765;-70
2022/06/01 05:30:44;;;;;;;10.07;5.90;;;;;;;19.03;60.12;94968.03;5095377;28;20061;-69
2022/06/01 05:33:09;;;;;;;8.77;6.00;;;;;;;19.14;60.00;94986.06;5114150;28;20104;-69
2022/06/01 05:35:35;;;;;;;7.75;5.80;;;;;;;19.20;59.72;94993.25;5113692;27;20028;-69
2022/06/01 05:38:01;;;;;;;8.63;5.85;;;;;;;19.27;61.32;94990.72;5113654;28;20034;-69
2022/06/01 05:40:27;;;;;;;11.25;7.03;;;;;;;19.43;60.39;94995.03;5095380;28;20040;-70
2022/06/01 05:42:52;;;;;;;10.52;6.53;;;;;;;19.41;60.43;94997.84;5093979;28;20156;-70
2022/06/01 05:45:18;;;;;;;10.07;7.20;;;;;;;19.26;60.91;94996.16;5102596;28;20036;-69
2022/06/01 05:47:43;;;;;;;9.30;7.20;;;;;;;19.31;61.49;94994.66;5092970;28;20108;-69
2022/06/01 05:50:09;;;;;;;10.00;6.82;;;;;;;19.34;61.32;94983.75;5109504;28;20032;-71
2022/06/01 05:52:38;;;;;;;9.20;7.28;;;;;;;19.35;61.46;94995.09;5113817;28;20473;-69
2022/06/01 05:55:06;;;;;;;9.32;8.32;;;;;;;19.08;62.93;94993.81;5112703;28;20096;-70
2022/06/01 05:57:31;;;;;;;9.20;7.97;;;;;;;19.24;62.52;94980.53;5112977;28;20055;-69
2022/06/01 05:59:57;;;;;;;12.27;8.20;;;;;;;19.39;62.25;94977.97;5111624;28;20032;-69
2022/06/01 06:02:23;;;;;;;8.45;7.40;;;;;;;19.53;61.31;94979.81;5113752;27;20027;-70
2022/06/01 06:04:48;;;;;;;10.25;7.30;;;;;;;19.57;60.78;94964.47;5110436;28;20102;-69
2022/06/01 06:07:14;;;;;;;9.93;7.82;;;;;;;19.70;60.55;94980.53;5110093;28;20047;-70
2022/06/01 06:09:39;;;;;;;8.98;7.32;;;;;;;19.78;60.47;94979.59;5098989;27;20065;-69
2022/06/01 06:12:05;;;;;;;8.13;6.95;;;;;;;19.89;59.66;94967.81;5120034;27;20076;-69
2022/06/01 06:14:30;;;;;;;10.23;7.55;;;;;;;19.87;59.39;94975.91;5118616;27;20080;-70
2022/06/01 06:16:56;;;;;;;9.30;7.78;;;;;;;19.79;59.62;94979.44;5116324;27;20023;-69
2022/06/01 06:19:21;;;;;;;8.50;7.15;;;;;;;19.91;59.62;94966.63;5109779;27;20035;-69
2022/06/01 06:21:47;;;;;;;10.48;7.20;;;;;;;20.02;59.20;94974.09;5112747;28;20039;-69
2022/06/01 06:24:17;;;;;;;9.07;7.25;;;;;;;19.93;60.35;94967.28;5109892;28;20026;-69
2022/06/01 06:26:46;;;;;;;9.80;7.10;;;;;;;19.99;61.02;94963.09;5114966;27;20053;-69
2022/06/01 06:29:12;;;;;;;9.35;6.95;;;;;;;20.25;60.30;94958.19;5121552;27;20553;-69
2022/06/01 06:31:38;;;;;;;9.93;7.32;;;;;;;20.08;60.06;94959.34;5104762;27;20106;-69
2022/06/01 06:34:03;;;;;;;8.02;6.63;;;;;;;20.25;59.69;94962.63;5118152;27;20106;-69
2022/06/01 06:36:29;;;;;;;9.30;6.85;;;;;;;20.39;58.95;94960.97;5095439;28;20036;-70
2022/06/01 06:38:54;;;;;;;8.57;7.63;;;;;;;20.31;59.09;94959.28;5095039;27;20084;-70
2022/06/01 06:41:21;;;;;;;8.82;7.43;;;;;;;20.38;60.32;94957.53;5095770;28;20036;-70
2022/06/01 06:43:46;;;;;;;10.82;7.53;;;;;;;20.58;59.11;94963.06;5111098;28;20096;-69
2022/06/01 06:46:14;;;;;;;8.63;6.63;;;;;;;20.70;59.67;94958.16;5102638;27;20489;-70
2022/06/01 06:48:40;;;;;;;9.82;7.95;;;;;;;20.73;58.18;94970.97;5090707;28;20089;-70
2022/06/01 06:51:06;;;;;;;10.43;8.70;;;;;;;20.29;61.02;94958.63;5105763;28;20084;-70
2022/06/01 06:53:31;;;;;;;10.98;8.52;;;;;;;20.14;61.96;94945.44;5088578;28;20039;-70
2022/06/01 06:55:57;;;;;;;10.98;7.63;;;;;;;20.20;61.49;94957.91;5109696;27;20019;-70
2022/06/01 06:58:22;;;;;;;9.18;7.47;;;;;;;20.35;61.04;94960.53;5106013;27;20045;-70
2022/06/01 07:00:48;;;;;;;10.05;7.00;;;;;;;20.54;60.32;94959.19;5093411;28;20114;-70
2022/06/01 07:03:14;;;;;;;9.85;8.48;;;;;;;20.48;60.16;94949.34;5106631;28;20190;-68
2022/06/01 07:08:24;;;;;;;8.45;6.57;;;;;;;20.68;59.50;94946.97;5108868;28;21101;-68
2022/06/01 07:10:50;;;;;;;9.35;6.60;;;;;;;20.91;59.29;94947.59;5091419;28;20408;-68
2022/06/01 07:13:16;;;;;;;10.00;7.70;;;;;;;21.06;59.32;94949.38;5110572;27;20024;-68
2022/06/01 07:15:41;;;;;;;10.45;7.68;;;;;;;21.13;59.66;94955.53;5106103;28;20023;-68
2022/06/01 07:18:07;;;;;;;9.50;7.38;;;;;;;21.22;60.23;94959.69;5108504;28;20042;-68
2022/06/01 07:20:32;;;;;;;9.07;8.07;;;;;;;21.37;58.12;94955.19;5104149;28;20020;-70
2022/06/01 07:22:58;;;;;;;8.38;7.60;;;;;;;21.31;58.98;94957.72;5107898;28;20028;-69
2022/06/01 07:25:24;;;;;;;9.50;7.53;;;;;;;21.42;59.31;94955.44;5107860;27;20028;-68
2022/06/01 07:27:49;;;;;;;9.48;7.60;;;;;;;21.64;58.21;94960.69;5091205;28;20031;-68
2022/06/01 07:30:15;;;;;;;9.50;7.40;;;;;;;21.67;58.14;94951.53;5108616;28;20035;-68
2022/06/01 07:32:46;;;;;;;8.95;7.20;;;;;;;21.57;57.95;94944.78;5107874;27;20038;-68
2022/06/01 07:35:12;;;;;;;11.25;7.25;;;;;;;21.46;57.98;94945.31;5092066;28;20481;-68
2022/06/01 07:43:06;;;;;;;11.63;7.55;;;;;;;21.86;57.06;94943.75;5086912;28;20124;-68
2022/06/01 07:45:38;;;;;;;8.55;6.32;;;;;;;21.97;57.75;94938.94;5098542;28;20493;-68
2022/06/01 07:48:04;;;;;;;8.93;6.40;;;;;;;22.24;57.46;94948.69;5094113;28;20409;-68
2022/06/01 07:50:31;;;;;;;9.45;6.40;;;;;;;22.38;54.76;94946.13;5112953;27;20114;-69
2022/06/01 07:52:57;;;;;;;9.75;6.00;;;;;;;22.34;55.18;94947.50;5100413;28;20044;-68
2022/06/01 08:13:06;;;;;;;8.88;7.63;;;;;;;23.05;55.37;94933.94;5089198;27;20397;-71
2022/06/01 08:14:11;;;;;;;9.15;6.50;;;;;;;23.08;56.87;94938.81;5103906;28;20138;-71
2022/06/01 08:16:38;;;;;;;10.23;6.20;;;;;;;23.06;54.96;94925.78;5078347;28;20112;-71
2022/06/01 08:19:04;;;;;;;6.82;6.22;;;;;;;23.20;55.13;94945.16;5079658;28;20036;-71
2022/06/01 08:21:31;;;;;;;8.70;6.65;;;;;;;23.21;56.77;94941.50;5073017;28;20021;-71
2022/06/01 08:23:56;;;;;;;8.52;6.70;;;;;;;23.24;56.27;94945.59;5081277;28;20036;-71
2022/06/01 08:26:22;;;;;;;8.50;6.68;;;;;;;23.27;56.20;94932.75;5086007;28;20485;-71
2022/06/01 08:28:47;;;;;;;7.68;6.07;;;;;;;23.20;54.62;94935.38;5066700;28;20387;-71
2022/06/01 08:31:13;;;;;;;8.80;5.72;;;;;;;23.19;53.82;94931.09;5046294;28;20036;-71
2022/06/01 08:33:39;;;;;;;7.25;5.50;;;;;;;23.20;56.24;94931.91;5057667;28;20025;-71
2022/06/01 08:36:04;;;;;;;8.43;5.43;;;;;;;23.22;55.56;94935.19;5069277;28;20032;-71
2022/06/01 08:38:30;;;;;;;9.63;5.07;;;;;;;23.41;55.10;94938.88;5064865;28;20086;-71
2022/06/01 08:41:00;;;;;;;6.50;5.05;;;;;;;23.47;54.01;94922.13;5076013;28;20032;-71
2022/06/01 08:43:27;;;;;;;6.93;4.82;;;;;;;23.55;53.64;94927.25;5068697;28;20086;-71
2022/06/01 08:46:01;;;;;;;8.18;5.03;;;;;;;23.66;53.41;94927.66;5083295;28;20041;-71
2022/06/01 08:48:30;;;;;;;9.70;5.80;;;;;;;23.63;52.93;94929.69;5068632;28;20036;-71
2022/06/01 08:50:56;;;;;;;6.35;4.90;;;;;;;23.66;52.32;94925.00;5081849;28;20602;-71
2022/06/01 08:53:21;;;;;;;7.30;4.47;;;;;;;23.79;51.36;94936.44;5068475;28;20048;-71
2022/06/01 08:55:50;;;;;;;5.63;4.00;;;;;;;23.92;51.09;94935.59;5084533;28;20040;-71
2022/06/01 08:58:19;;;;;;;5.63;4.28;;;;;;;24.04;48.99;94931.31;5064003;28;20078;-72
2022/06/01 09:01:19;;;;;;;6.75;4.13;;;;;;;24.20;49.82;94926.56;5054710;28;20446;-71
2022/06/01 09:03:53;;;;;;;6.90;4.28;;;;;;;24.27;50.48;94930.00;5078205;28;20082;-71
2022/06/01 09:06:29;;;;;;;7.63;4.05;;;;;;;24.43;49.62;94928.72;5081175;28;20065;-71
2022/06/01 09:09:16;;;;;;;6.18;4.20;;;;;;;24.45;49.04;94930.16;5050621;28;20398;-71
2022/06/01 09:11:46;;;;;;;5.70;3.45;;;;;;;24.63;47.62;94921.53;5073268;28;20117;-71
2022/06/01 09:14:15;;;;;;;9.43;3.58;;;;;;;24.71;46.27;94923.09;5053529;28;20264;-71
2022/06/01 09:16:46;;;;;;;6.65;2.83;;;;;;;24.82;45.03;94917.13;5071041;28;20490;-71
2022/06/01 09:22:37;;;;;;;4.97;3.17;;;;;;;24.86;46.04;94918.34;5070456;28;20035;-71
2022/06/01 09:25:14;;;;;;;7.03;3.35;;;;;;;25.00;44.55;94913.75;5060677;28;20049;-70
2022/06/01 09:27:49;;;;;;;11.10;3.38;;;;;;;25.05;44.95;94915.78;5057010;28;20506;-72
2022/06/01 09:30:44;;;;;;;6.07;3.30;;;;;;;25.18;44.41;94913.03;5066977;28;20043;-71
2022/06/01 09:33:21;;;;;;;6.13;3.40;;;;;;;25.16;44.98;94913.28;5069935;28;20441;-72
2022/06/01 09:36:07;;;;;;;5.10;3.47;;;;;;;25.19;44.24;94914.69;5071557;28;20052;-71
2022/06/01 09:38:48;;;;;;;8.23;3.25;;;;;;;25.14;43.70;94911.84;5063500;28;20045;-72
2022/06/01 09:41:36;;;;;;;5.18;3.17;;;;;;;25.27;43.44;94909.13;5071037;28;20272;-72
2022/06/01 09:44:10;;;;;;;8.07;3.00;;;;;;;25.38;41.32;94908.41;5069744;28;20078;-72
2022/06/01 09:46:54;;;;;;;4.50;3.13;;;;;;;25.50;42.56;94907.72;5070874;28;20504;-72
2022/06/01 09:49:27;;;;;;;6.88;3.20;;;;;;;25.57;41.01;94908.47;5054203;28;20387;-72
2022/06/01 09:52:00;;;;;;;4.57;2.90;;;;;;;25.52;40.97;94902.97;5071541;28;20485;-72
2022/06/01 09:54:33;;;;;;;6.15;3.38;;;;;;;25.67;41.92;94900.00;5055492;28;20390;-71
2022/06/01 09:57:18;;;;;;;6.00;2.75;;;;;;;25.68;41.89;94902.44;5071941;28;20025;-72
2022/06/01 10:08:14;;;;;;;5.88;3.15;;;;;;;25.99;43.22;94892.75;5067212;28;20044;-74
2022/06/01 10:10:40;;;;;;;5.65;3.03;;;;;;;26.03;41.86;94896.59;5071035;28;20056;-72
2022/06/01 10:13:06;;;;;;;4.72;3.03;;;;;;;26.12;42.66;94886.47;5071379;28;20040;-75
2022/06/01 10:15:44;;;;;;;4.10;2.80;;;;;;;26.20;40.37;94894.97;5054493;28;20037;-75
2022/06/01 10:18:23;;;;;;;5.15;2.83;;;;;;;26.13;40.96;94882.75;5060892;28;20090;-73
2022/06/01 10:20:58;;;;;;;7.78;2.63;;;;;;;26.29;39.89;94887.50;5052713;28;20040;-72
2022/06/01 10:23:39;;;;;;;5.60;2.22;;;;;;;26.29;36.96;94888.31;5065471;28;20098;-72
2022/06/01 10:26:15;;;;;;;4.63;2.40;;;;;;;26.28;35.53;94876.03;5065724;28;20044;-72
2022/06/01 10:28:43;;;;;;;4.47;1.55;;;;;;;26.12;32.71;94871.31;5050023;28;20028;-72
2022/06/01 10:31:16;;;;;;;5.72;2.63;;;;;;;26.18;33.56;94875.75;5052856;28;20020;-72
2022/06/01 10:33:47;;;;;;;5.63;2.00;;;;;;;26.27;36.63;94879.75;5069582;28;20030;-72
2022/06/01 10:36:40;;;;;;;3.92;2.17;;;;;;;26.44;35.94;94881.78;5052033;28;20394;-73
2022/06/01 10:39:09;;;;;;;3.80;2.28;;;;;;;26.46;36.31;94877.06;5033961;28;20117;-72
2022/06/01 10:41:47;;;;;;;4.40;2.20;;;;;;;26.58;36.87;94880.63;5046419;28;20031;-72
2022/06/01 10:44:18;;;;;;;4.07;2.03;;;;;;;26.72;34.70;94878.59;5049523;28;20045;-72
2022/06/01 10:46:43;;;;;;;;;;;;;;;26.84;35.64;94879.44;5056139;28;20028;-72
2022/06/01 10:49:18;;;;;;;6.30;2.20;;;;;;;26.84;34.26;94875.97;5070698;28;19927;-72
2022/06/01 10:51:43;;;;;;;2.80;1.67;;;;;;;26.91;32.00;94880.19;5069044;28;20996;-72
2022/06/01 10:54:21;;;;;;;2.20;1.50;;;;;;;26.90;32.17;94875.06;5069402;28;20029;-72
2022/06/01 10:56:47;;;;;;;4.28;1.70;;;;;;;26.93;32.23;94867.41;5034959;28;20122;-73
2022/06/01 10:59:15;;;;;;;4.18;1.80;;;;;;;27.00;31.65;94862.00;5035651;28;20055;-72
2022/06/01 11:01:53;;;;;;;4.97;1.75;;;;;;;27.14;34.22;94874.09;5052450;28;20056;-72
2022/06/01 11:04:50;;;;;;;3.90;1.88;;;;;;;27.16;32.79;94871.22;5047951;28;20029;-73
2022/06/01 11:07:23;;;;;;;3.22;1.83;;;;;;;27.24;31.72;94867.41;5055755;28;20036;-72
2022/06/01 11:10:01;;;;;;;2.80;1.70;;;;;;;27.28;32.92;94861.41;5068229;28;20051;-72
2022/06/01 11:12:45;;;;;;;3.45;1.52;;;;;;;27.38;30.17;94863.47;5069200;28;20032;-72
2022/06/01 11:15:33;;;;;;;3.65;1.60;;;;;;;27.43;30.44;94860.94;5051553;28;20385;-72
2022/06/01 11:18:02;;;;;;;4.70;2.10;;;;;;;27.46;30.32;94857.81;5068818;28;20031;-72
2022/06/01 11:20:44;;;;;;;3.33;1.55;;;;;;;27.51;27.71;94854.47;5067158;28;20132;-72
2022/06/01 11:23:18;;;;;;;2.85;1.42;;;;;;;27.49;30.85;94854.69;5069022;28;20107;-72
2022/06/01 11:25:56;;;;;;;5.53;1.85;;;;;;;27.52;30.16;94854.22;5069282;28;20039;-72
2022/06/01 11:28:40;;;;;;;3.40;1.67;;;;;;;27.51;29.78;94851.78;5064819;28;20414;-72
2022/06/01 11:31:18;;;;;;;3.53;1.55;;;;;;;27.49;29.47;94849.34;5059258;28;20050;-71
2022/06/01 11:34:03;;;;;;;4.00;1.90;;;;;;;27.50;30.88;94832.31;5049001;28;20031;-72
2022/06/01 11:36:50;;;;;;;2.72;1.45;;;;;;;27.66;30.36;94830.78;5066116;28;20028;-72
2022/06/01 11:39:35;;;;;;;3.50;1.48;;;;;;;27.53;31.15;94844.38;5066878;28;20028;-71
2022/06/01 11:42:15;;;;;;;5.38;1.60;;;;;;;27.63;32.40;94840.06;5068834;28;20081;-72
2022/06/01 11:45:19;;;;;;;3.67;1.35;;;;;;;27.73;30.43;94838.69;5063079;28;20114;-72
2022/06/01 11:47:49;;;;;;;5.85;1.83;;;;;;;27.69;29.95;94824.97;5066916;28;20073;-72
2022/06/01 11:50:32;;;;;;;3.85;1.90;;;;;;;27.79;31.11;94824.41;5062086;28;20051;-72
2022/06/01 11:53:00;;;;;;;3.00;1.52;;;;;;;27.83;29.61;94823.75;5056017;28;20045;-72
2022/06/01 11:55:34;;;;;;;3.53;1.60;;;;;;;27.82;29.08;94826.63;5057609;28;20465;-74
2022/06/01 11:58:10;;;;;;;6.22;1.90;;;;;;;27.79;29.89;94821.75;5060602;28;20036;-72
2022/06/01 12:00:57;;;;;;;4.57;1.63;;;;;;;27.86;30.77;94817.13;5062363;28;20032;-72
2022/06/01 12:03:24;;;;;;;2.38;1.38;;;;;;;27.93;30.49;94817.00;5067556;28;20044;-72
2022/06/01 12:06:06;;;;;;;4.28;1.45;;;;;;;27.88;29.42;94816.88;5064707;28;20036;-72
2022/06/01 12:08:56;;;;;;;5.15;1.40;;;;;;;27.83;28.29;94814.91;5061447;28;20073;-72
2022/06/01 12:11:38;;;;;;;5.38;1.60;;;;;;;27.68;29.79;94810.03;5050605;28;20545;-72
2022/06/01 12:14:21;;;;;;;4.72;1.40;;;;;;;27.66;28.62;94811.31;5055443;28;20431;-72
2022/06/01 12:16:46;;;;;;;3.55;1.42;;;;;;;27.51;29.05;94803.78;5054460;28;20037;-71
2022/06/01 12:19:19;;;;;;;3.30;1.50;;;;;;;27.68;30.11;94803.88;5032140;28;20106;-72
2022/06/01 12:21:44;;;;;;;6.00;1.75;;;;;;;27.79;28.95;94800.38;5051532;28;20022;-72
2022/06/01 12:29:59;;;;;;;4.90;1.80;;;;;;;27.89;29.17;94795.31;5061287;28;20039;-72
2022/06/01 12:32:25;;;;;;;6.28;1.80;;;;;;;27.96;29.27;94797.84;5059888;28;20510;-72
2022/06/01 12:34:57;;;;;;;3.85;1.70;;;;;;;27.98;29.49;94793.88;5047580;28;20036;-72